Decoded Metar for PAPO (POINT HOPE in AK, USA) (IATA:PHO) | Meteo·Mobile Aviation Weather
aviador You're here:

PAPO Decoded Metar

POINT HOPE in AK, USA
Report Time2018-09-25 12:56:00
UTC Time2018-09-25 13:29:32
Flight Rules vfr VFR
Wind100° at 05 kt
W.Decomp.*RWY 01: 1.0 kt HW 4.9 kt RCW
W.Rank100° ranks 25
Current wind is below 100° avg. (8.8)
Visibility9999 m
Phenomena:N/A
Clouds:Broken 055 Hf
Broken 100 Hf
Expected CloudBase > 800 ft AGL from Temp-Dew spread
Ceiling5,500 ft
Temp05°C (ISA -10)
Dew Point03°C (87% RH)
AAT1.7°C
QNH1010 hPa
Density Alt-978 ft
Elevation20 ft
Report Wrong Elevation
Raw Report
PAPO 251256Z AUTO 10005KT 10SM BKN055 BKN100 05/03 A2982 RMK AO2
SLP097 T00500033=

Extra information for PAPO:More info

Metar Taf Metar & Taf Last 4 Metars F.Rules Stats Wind Profile Meteogram Temp Stats Airport Information Weather charts Add Link Nearby VenuesMetar ALERT Operation Metar Decoded Social comments

AIRNAV info for PAPO